Monterey, CA

12:29 PM PDT on August 25, 2016 (GMT -0700)
Monterey Peninsula | | Change Station

Elev 253 ft 36.59 °N, 121.84 °W | Updated 35 minutes ago

Mostly Cloudy
Mostly Cloudy
59 °F
Feels Like 59 °F
N
10
Wind Variable Wind from WSW

Today
High -- | Low -- °F
--% Chance of Precip.
Yesterday
High -- | Low -- °F
Precip. -- in
Pressure 30.03 in
Visibility 9.0 miles
Clouds Mostly Cloudy 1000 ft
Dew Point 53 °F
Humidity 81%
Rainfall 0.00 in
Snow Depth Not available.
6:33 AM 7:44 PM
Last Quarter, 43% visible
METAR KMRY 251854Z 25009KT 9SM BKN010 15/12 A2999 RMK AO2 SLP169 T01500117
Pressure 30.03 in
Visibility 9.0 miles
Clouds Mostly Cloudy 1000 ft
Dew Point 53 °F
Humidity 81%
Rainfall 0.00 in
Snow Depth Not available.
6:33 AM 7:44 PM
Last Quarter, 43% visible
METAR KMRY 251854Z 25009KT 9SM BKN010 15/12 A2999 RMK AO2 SLP169 T01500117
A tropical disturbance pushing toward the Bahamas, is expected to develop into a tropical depression or storm, and will likely target Florida and the Gulf Coast this weekend into next week.

Right now, the disturbance remains a broad area of low pressure pushing through the Dominican Republic and Haiti, headed toward the southeast Bahamas. Rainfall totals over 3 inches (with locally higher amounts) are expected in HispaƱiola, particularly over elevated terrain.

10-Day Weather Forecast

Almanac

Astronomy

Aug. 25, 2016 Rise Set
Actual Time
Civil Twilight
Nautical Twilight
Astronomical Twilight
Moon
Length of Visible Light
Length of Day
Tomorrow will be .
, % of the Moon is Illuminated

Today's Extremes

State Highs State Lows

Community

WunderPhotos

Upload Photos

1,934,907 photos uploaded!

WunderBlog® & News

Nearby

Air Quality

  Air Quality AQ Index Pollutant
Not available.

Snow Depth

Station Depth Elevation

Earthquake Activity

City Distance Mag. Time & Date
Minimum magnitude displayed is 2.5.

Coastal Water Temperatures

Place Temperature

Stations

Nearby Weather Stations

Station Location Temp. Windchill Dew Point Humidity Wind Precip. Elev Updated Type
                   

Watches & Warnings

There are currently no watches in effect.